Aviation Digital Data Service (ADDS)

Output produced by TAFs form (1426 UTC 16 July 2018)
found at http://www.aviationweather.gov/adds/tafs/
 
METAR text: LROP 161400Z 29009KT CAVOK 29/15 Q1008 NOSIG
Conditions at: LROP (BUCHAREST/OTOPEN, RO) observed 1400 UTC 16 July 2018
Temperature: 29.0°C (84°F)
Dewpoint: 15.0°C (59°F) [RH = 43%]
Pressure (altimeter): 29.76 inches Hg (1008.0 mb)
Winds: from the WNW (290 degrees) at 10 MPH (9 knots; 4.7 m/s)
Visibility: 6 or more miles (10+ km)
Ceiling: ceiling and visibility are OK
Clouds: unknown
Weather: no significant weather observed at this time

Forecast for: LROP (BUCHAREST/OTOPEN, RO)
Text: TAF LROP 161100Z 1612/1712 27008KT CAVOK
Forecast period: 1200 UTC 16 July 2018 to 1200 UTC 17 July 2018
Forecast type: FROM: standard forecast or significant change
Winds: from the W (270 degrees) at 9 MPH (8 knots; 4.2 m/s)
Visibility: 6 or more miles (10+ km)
Clouds: not forecast
Weather: NSW  (no significant weather)
Text: PROB30
Forecast period: 1400 to 1800 UTC 16 July 2018
Forecast type: TEMPORARY: The following changes expected for less than half the time period
Winds: variable direction winds at 23 MPH (20 knots; 10.4 m/s)
gusting to 34 MPH (30 knots; 15.6 m/s)
Visibility: 1.86 miles (2.99 km)
Ceiling: 2500 feet AGL
Clouds: broken clouds at 2500 feet AGL
Weather: TSRA  (rain associated with thunderstorm(s))